createdAt,value
2022-08-23T00:01:33.051Z,61711.03
2022-08-23T00:04:00.995Z,61704.81
2022-08-23T00:06:27.439Z,61715.19
2022-08-23T00:08:54.271Z,61746.25
2022-08-23T00:11:40.544Z,61729.69
2022-08-23T00:14:12.181Z,61605.38
2022-08-23T00:16:38.601Z,61543.22
2022-08-23T00:19:05.426Z,61495.56
2022-08-23T00:21:31.772Z,61423.06
2022-08-23T00:23:58.172Z,61329.84
2022-08-23T00:26:25.034Z,61311.22
2022-08-23T00:28:51.433Z,61226.28
2022-08-23T00:31:18.214Z,61249.06
2022-08-23T00:33:44.696Z,61263.56
2022-08-23T00:36:11.041Z,61321.56
2022-08-23T00:38:37.639Z,61255.28
2022-08-23T00:41:04.392Z,61259.41
2022-08-23T00:43:51.463Z,61282.22
2022-08-23T00:46:39.677Z,61298.78
2022-08-23T00:49:08.024Z,61261.50
2022-08-23T00:51:43.020Z,61220.06
2022-08-23T00:54:18.438Z,61182.78
2022-08-23T00:56:44.884Z,61172.41
2022-08-23T00:59:11.252Z,61087.50
2022-08-23T01:01:37.727Z,61004.63
2022-08-23T01:04:05.173Z,60913.50
2022-08-23T01:06:39.765Z,60832.72
2022-08-23T01:09:07.470Z,60751.94
2022-08-23T01:11:35.539Z,60760.22
2022-08-23T01:14:04.778Z,60696.03
2022-08-23T01:16:37.092Z,60706.38
2022-08-23T01:19:03.849Z,60700.16
2022-08-23T01:21:31.868Z,60718.81
2022-08-23T01:23:58.974Z,60691.88
2022-08-23T01:26:25.448Z,60696.03
2022-08-23T01:28:52.587Z,60644.25
2022-08-23T01:31:19.237Z,60617.31
2022-08-23T01:33:46.009Z,60586.25
2022-08-23T01:36:13.169Z,60590.38
2022-08-23T01:38:39.535Z,60604.88
2022-08-23T01:41:06.899Z,60617.31
2022-08-23T01:43:33.625Z,60590.38
2022-08-23T01:46:06.628Z,60586.25
2022-08-23T01:48:32.961Z,60532.41
2022-08-23T01:50:59.309Z,60528.25
2022-08-23T01:53:25.656Z,60461.97
2022-08-23T01:55:52.065Z,60428.84
2022-08-23T01:58:18.546Z,60387.41
2022-08-23T02:00:44.895Z,60354.28
2022-08-23T02:03:12.331Z,60327.38
2022-08-23T02:05:40.075Z,60283.88
2022-08-23T02:08:25.251Z,60285.94
2022-08-23T02:10:51.661Z,60250.75
2022-08-23T02:13:18.063Z,60261.09
2022-08-23T02:15:44.690Z,60321.16
2022-08-23T02:18:11.664Z,60288.00
2022-08-23T02:20:46.324Z,60358.44
2022-08-23T02:23:12.726Z,60333.56
2022-08-23T02:25:40.226Z,60352.22
2022-08-23T02:28:06.704Z,60310.78
2022-08-23T02:30:33.112Z,60306.66
2022-08-23T02:33:00.071Z,60273.53
2022-08-23T02:35:27.129Z,60275.59
2022-08-23T02:37:53.470Z,60248.66
2022-08-23T02:40:19.830Z,60236.25
2022-08-23T02:42:46.190Z,60261.09
2022-08-23T02:45:13.076Z,60151.34
2022-08-23T02:47:39.463Z,60176.19
2022-08-23T02:50:06.449Z,60190.69
2022-08-23T02:52:33.056Z,60205.19
2022-08-23T02:54:59.977Z,60180.31
2022-08-23T02:57:26.939Z,60153.41
2022-08-23T02:59:54.619Z,60122.34
2022-08-23T03:02:20.980Z,60130.63
2022-08-23T03:04:47.580Z,60114.06
2022-08-23T03:07:14.192Z,60122.34
2022-08-23T03:09:40.814Z,60161.69
2022-08-23T03:12:07.246Z,60097.50
2022-08-23T03:14:33.643Z,60078.84
2022-08-23T03:17:04.586Z,60029.16
2022-08-23T03:19:30.956Z,60068.50
2022-08-23T03:21:57.311Z,60076.78
2022-08-23T03:24:23.709Z,60045.72
2022-08-23T03:26:50.045Z,60049.84
2022-08-23T03:29:16.545Z,60035.38
2022-08-23T03:31:42.946Z,60045.72
2022-08-23T03:34:09.375Z,60020.88
2022-08-23T03:36:35.782Z,60012.59
2022-08-23T03:39:02.487Z,60043.66
2022-08-23T03:41:28.808Z,60004.31
2022-08-23T03:43:55.168Z,59993.94
2022-08-23T03:46:24.384Z,59952.53
2022-08-23T03:48:58.467Z,60008.44
2022-08-23T03:51:25.293Z,59996.03
2022-08-23T03:53:51.912Z,59979.44
2022-08-23T03:56:22.398Z,59948.38
2022-08-23T03:58:50.058Z,60002.22
2022-08-23T04:01:16.502Z,59993.94
2022-08-23T04:03:43.600Z,59973.25
2022-08-23T04:06:10.371Z,59962.88
2022-08-23T04:08:37.248Z,59964.97
2022-08-23T04:11:03.749Z,59944.25
2022-08-23T04:13:30.113Z,59981.53
2022-08-23T04:15:59.782Z,60027.06
2022-08-23T04:18:26.146Z,59923.53
2022-08-23T04:20:52.908Z,59987.72
2022-08-23T04:23:19.353Z,60014.66
2022-08-23T04:25:45.761Z,59967.03
2022-08-23T04:28:12.113Z,59944.25
2022-08-23T04:30:38.424Z,59954.59
2022-08-23T04:33:10.702Z,59931.81
2022-08-23T04:35:37.699Z,59902.84
2022-08-23T04:38:04.346Z,59915.25
2022-08-23T04:41:11.224Z,59958.75
2022-08-23T04:43:37.933Z,59927.69
2022-08-23T04:46:05.470Z,60002.22
2022-08-23T04:48:32.090Z,59985.66
2022-08-23T04:50:58.575Z,59985.66
2022-08-23T04:53:25.128Z,59991.88
2022-08-23T04:55:52.356Z,59977.38
2022-08-23T04:58:19.325Z,60027.06
2022-08-23T05:00:52.483Z,60031.22
2022-08-23T05:03:18.873Z,60083.00
2022-08-23T05:05:45.328Z,60186.53
2022-08-23T05:08:11.706Z,60157.53
2022-08-23T05:10:38.322Z,60122.34
2022-08-23T05:13:04.666Z,60192.75
2022-08-23T05:15:31.034Z,60188.59
2022-08-23T05:17:57.400Z,60283.88
2022-08-23T05:20:23.822Z,60354.28
2022-08-23T05:22:50.452Z,60412.28
2022-08-23T05:25:16.916Z,60455.78
2022-08-23T05:27:43.466Z,60524.13
2022-08-23T05:30:15.445Z,60580.03
2022-08-23T05:32:42.036Z,60648.38
2022-08-23T05:35:08.606Z,60768.50
2022-08-23T05:37:35.026Z,60917.63
2022-08-23T05:40:01.422Z,61023.28
2022-08-23T05:42:27.874Z,61112.34
2022-08-23T05:44:54.181Z,61199.34
2022-08-23T05:47:24.855Z,61201.41
2022-08-23T05:49:51.534Z,61290.50
2022-08-23T05:52:17.874Z,61406.50
2022-08-23T05:54:44.223Z,61510.09
2022-08-23T05:57:11.506Z,61597.09
2022-08-23T05:59:37.830Z,61626.09
2022-08-23T06:02:04.230Z,61696.53
2022-08-23T06:04:30.816Z,61800.13
2022-08-23T06:06:58.814Z,62009.38
2022-08-23T06:09:25.276Z,62311.88
2022-08-23T06:11:52.370Z,62941.81
2022-08-23T06:14:18.783Z,63687.94
2022-08-23T06:16:46.691Z,64181.28
2022-08-23T06:19:13.603Z,64450.78
2022-08-23T06:21:40.168Z,64871.66
2022-08-23T06:24:07.141Z,65398.34
2022-08-23T06:26:35.083Z,65352.72
2022-08-23T06:29:02.686Z,65205.50
2022-08-23T06:31:48.514Z,65587.03
2022-08-23T06:34:18.489Z,65647.19
2022-08-23T06:36:48.786Z,65757.09
2022-08-23T06:39:15.922Z,65647.19
2022-08-23T06:41:42.302Z,65676.22
2022-08-23T06:44:08.617Z,65667.91
2022-08-23T06:46:35.112Z,65740.50
2022-08-23T06:49:05.015Z,65788.19
2022-08-23T06:51:33.406Z,66095.13
2022-08-23T06:54:03.109Z,66053.66
2022-08-23T06:56:29.947Z,66375.13
2022-08-23T06:58:56.266Z,65947.88
2022-08-23T07:01:44.760Z,65587.03
2022-08-23T07:04:11.222Z,66061.94
2022-08-23T07:06:37.799Z,66422.84
2022-08-23T07:09:04.731Z,66352.31
2022-08-23T07:11:31.885Z,66657.22
2022-08-23T07:14:02.060Z,65647.19
2022-08-23T07:16:32.210Z,65365.16
2022-08-23T07:18:58.689Z,65273.91
2022-08-23T07:21:25.164Z,65514.47
2022-08-23T07:23:54.454Z,65591.19
2022-08-23T07:26:21.581Z,65168.16
2022-08-23T07:28:47.952Z,64859.22
2022-08-23T07:31:16.344Z,64643.59
2022-08-23T07:33:44.583Z,64938.00
2022-08-23T07:36:13.273Z,65004.34
2022-08-23T07:38:39.705Z,65029.25
2022-08-23T07:41:06.180Z,65004.34
2022-08-23T07:43:34.258Z,64728.59
2022-08-23T07:46:04.253Z,64792.88
2022-08-23T07:48:52.380Z,65085.22
2022-08-23T07:51:17.306Z,65139.13
2022-08-23T07:53:46.242Z,65381.75
2022-08-23T07:56:13.428Z,65253.19
2022-08-23T07:58:39.839Z,65607.78
2022-08-23T08:01:32.692Z,65699.03
2022-08-23T08:04:00.113Z,66192.63
2022-08-23T08:06:33.997Z,65941.66
2022-08-23T08:09:00.870Z,65842.13
2022-08-23T08:11:32.337Z,66711.16
2022-08-23T08:14:01.749Z,67003.66
2022-08-23T08:16:33.014Z,67024.41
2022-08-23T08:19:00.071Z,66746.44
2022-08-23T08:21:26.839Z,67003.66
2022-08-23T08:23:54.096Z,67190.34
2022-08-23T08:26:20.813Z,67024.41
2022-08-23T08:28:47.799Z,67227.69
2022-08-23T08:31:14.443Z,66891.63
2022-08-23T08:33:40.939Z,66962.16
2022-08-23T08:36:07.914Z,67206.97
2022-08-23T08:38:38.961Z,67314.84
2022-08-23T08:41:16.725Z,67655.09
2022-08-23T08:43:43.025Z,67669.63
2022-08-23T08:46:14.568Z,67742.22
2022-08-23T08:48:42.755Z,67445.53
2022-08-23T08:51:32.149Z,67949.72
2022-08-23T08:53:59.987Z,67949.72
2022-08-23T08:56:32.289Z,68348.13
2022-08-23T08:59:00.597Z,68404.16
2022-08-23T09:01:26.990Z,68337.75
2022-08-23T09:03:53.419Z,68285.88
2022-08-23T09:06:32.063Z,68335.69
2022-08-23T09:09:04.226Z,68375.13
2022-08-23T09:11:31.557Z,68781.88
2022-08-23T09:14:16.885Z,68682.25
2022-08-23T09:16:43.185Z,69053.75
2022-08-23T09:19:09.753Z,69539.47
2022-08-23T09:21:44.168Z,69390.00
2022-08-23T09:24:10.499Z,69140.94
2022-08-23T09:26:36.979Z,69261.31
2022-08-23T09:29:23.786Z,69182.44
2022-08-23T09:31:54.963Z,69784.41
2022-08-23T09:34:30.856Z,69664.03
2022-08-23T09:37:17.600Z,69408.69
2022-08-23T09:39:45.076Z,70434.25
2022-08-23T09:42:27.974Z,70425.94
2022-08-23T09:44:54.461Z,70153.94
2022-08-23T09:47:23.755Z,70679.25
2022-08-23T09:49:51.388Z,71252.38
2022-08-23T09:52:22.485Z,71320.91
2022-08-23T09:55:01.911Z,71370.75
2022-08-23T09:57:29.061Z,70884.81
2022-08-23T10:00:00.121Z,71462.13
2022-08-23T10:02:33.212Z,70359.50
2022-08-23T10:05:07.154Z,71385.28
2022-08-23T10:07:42.454Z,71576.34
2022-08-23T10:10:13.980Z,71418.50
2022-08-23T10:12:40.316Z,72149.59
2022-08-23T10:15:09.400Z,72008.34
2022-08-23T10:17:41.643Z,70911.81
2022-08-23T10:20:11.518Z,70918.03
2022-08-23T10:22:42.047Z,70496.53
2022-08-23T10:25:17.632Z,70685.47
2022-08-23T10:28:05.749Z,71395.66
2022-08-23T10:30:50.682Z,71894.13
2022-08-23T10:33:19.330Z,71993.81
2022-08-23T10:36:03.846Z,71254.44
2022-08-23T10:38:37.576Z,71013.56
2022-08-23T10:41:03.867Z,71703.03
2022-08-23T10:43:33.444Z,71229.53
2022-08-23T10:46:00.824Z,72286.69
2022-08-23T10:48:35.307Z,71420.59
2022-08-23T10:51:03.697Z,71619.97
2022-08-23T10:53:35.614Z,70866.13
2022-08-23T10:56:08.087Z,71192.16
2022-08-23T10:58:38.700Z,71823.50
2022-08-23T11:01:05.461Z,72085.19
2022-08-23T11:03:32.466Z,71381.13
2022-08-23T11:06:19.539Z,71568.03
2022-08-23T11:08:47.958Z,71109.06
2022-08-23T11:11:33.491Z,71258.59
2022-08-23T11:13:59.856Z,71613.72
2022-08-23T11:16:29.645Z,71555.56
2022-08-23T11:18:55.974Z,71798.56
2022-08-23T11:21:25.422Z,71827.66
2022-08-23T11:24:03.442Z,70681.31
2022-08-23T11:26:31.351Z,70999.03
2022-08-23T11:29:00.735Z,70907.66
2022-08-23T11:31:30.886Z,71306.34
2022-08-23T11:34:01.834Z,72078.97
2022-08-23T11:36:28.619Z,71644.88
2022-08-23T11:39:06.539Z,71241.97
2022-08-23T11:41:34.064Z,71316.75
2022-08-23T11:44:03.361Z,70978.25
2022-08-23T11:46:34.910Z,70623.19
2022-08-23T11:49:20.085Z,70930.50
2022-08-23T11:51:49.395Z,71642.81
2022-08-23T11:54:15.780Z,72126.75
2022-08-23T11:56:52.298Z,72114.28
2022-08-23T11:59:24.790Z,71682.25
2022-08-23T12:01:51.128Z,71464.19
2022-08-23T12:04:30.798Z,70884.81
2022-08-23T12:07:01.960Z,71480.81
2022-08-23T12:09:28.231Z,71418.50
2022-08-23T12:11:57.693Z,71617.88
2022-08-23T12:14:42.345Z,71879.56
2022-08-23T12:17:11.955Z,71622.03
2022-08-23T12:19:40.521Z,71561.81
2022-08-23T12:22:17.329Z,71447.59
2022-08-23T12:24:54.974Z,70818.38
2022-08-23T12:27:40.295Z,70344.97
2022-08-23T12:30:13.144Z,70463.31
2022-08-23T12:32:58.295Z,70423.84
2022-08-23T12:35:43.409Z,71408.13
2022-08-23T12:38:30.043Z,71626.19
2022-08-23T12:40:56.907Z,72301.22
2022-08-23T12:43:24.946Z,72440.41
2022-08-23T12:46:01.259Z,72137.13
2022-08-23T12:48:33.882Z,71401.88
2022-08-23T12:51:07.093Z,71246.13
2022-08-23T12:53:34.585Z,71833.88
2022-08-23T12:56:08.744Z,71399.81
2022-08-23T12:58:35.780Z,72162.06
2022-08-23T13:01:06.879Z,72571.28
2022-08-23T13:03:34.960Z,71727.97
2022-08-23T13:06:11.075Z,71790.25
2022-08-23T13:08:39.678Z,71275.22
2022-08-23T13:11:08.402Z,71511.97
2022-08-23T13:13:39.611Z,72108.06
2022-08-23T13:16:31.593Z,71734.19
2022-08-23T13:19:14.932Z,70901.41
2022-08-23T13:21:41.293Z,71314.66
2022-08-23T13:24:37.681Z,71819.34
2022-08-23T13:27:11.247Z,71468.34
2022-08-23T13:29:48.227Z,71719.66
2022-08-23T13:32:24.717Z,71532.72
2022-08-23T13:34:56.250Z,70596.19
2022-08-23T13:37:28.948Z,70317.97
2022-08-23T13:39:57.856Z,70486.16
2022-08-23T13:42:25.246Z,71921.13
2022-08-23T13:44:51.938Z,72338.63
2022-08-23T13:47:26.044Z,72249.31
2022-08-23T13:49:53.624Z,72205.69
2022-08-23T13:55:07.188Z,70573.34
2022-08-23T13:57:37.046Z,70029.38
2022-08-23T14:00:05.261Z,70272.28
2022-08-23T14:02:31.649Z,69927.66
2022-08-23T14:04:58.169Z,70413.47
2022-08-23T14:07:24.653Z,71285.59
2022-08-23T14:09:54.851Z,71946.03
2022-08-23T14:12:22.254Z,72187.00
2022-08-23T14:14:48.660Z,71584.66
2022-08-23T14:20:58.045Z,73173.75
2022-08-23T14:23:24.962Z,72903.66
2022-08-23T14:25:51.763Z,72357.31
2022-08-23T14:28:18.802Z,71638.66
2022-08-23T14:30:45.815Z,70924.25
2022-08-23T14:33:12.339Z,71605.41
2022-08-23T14:35:38.711Z,72012.50
2022-08-23T14:38:05.441Z,71298.06
2022-08-23T14:40:31.875Z,70324.19
2022-08-23T14:42:58.724Z,69539.47
2022-08-23T14:45:25.331Z,69165.84
2022-08-23T14:47:53.414Z,69356.81
2022-08-23T14:50:19.913Z,69228.13
2022-08-23T14:52:46.610Z,69759.50
2022-08-23T14:55:13.372Z,70737.38
2022-08-23T14:57:39.900Z,70623.19
2022-08-23T15:00:08.832Z,71032.25
2022-08-23T15:02:36.441Z,71084.16
2022-08-23T15:05:03.417Z,70332.50
2022-08-23T15:07:29.733Z,69643.25
2022-08-23T15:09:56.037Z,69140.94
2022-08-23T15:15:12.429Z,68866.97
2022-08-23T15:17:44.095Z,68696.78
2022-08-23T15:20:10.570Z,69300.75
2022-08-23T15:22:39.928Z,69533.25
2022-08-23T15:25:10.923Z,69551.94
2022-08-23T15:27:37.377Z,69344.34
2022-08-23T15:30:04.777Z,69871.59
2022-08-23T15:32:32.418Z,69759.50
2022-08-23T15:34:59.483Z,70403.09
2022-08-23T15:37:25.852Z,69801.03
2022-08-23T15:39:52.248Z,69194.91
2022-08-23T15:42:18.742Z,69390.00
2022-08-23T15:44:46.999Z,69551.94
2022-08-23T15:47:21.154Z,69659.88
2022-08-23T15:49:48.603Z,69431.53
2022-08-23T15:52:14.950Z,69381.72
2022-08-23T15:54:41.493Z,69315.28
2022-08-23T15:57:10.444Z,69419.06
2022-08-23T15:59:37.302Z,70091.66
2022-08-23T16:02:03.930Z,70390.63
2022-08-23T16:04:34.940Z,70774.75
2022-08-23T16:07:04.160Z,70376.09
2022-08-23T16:09:30.667Z,70610.72
2022-08-23T16:12:00.272Z,71177.59
2022-08-23T16:14:26.832Z,70932.56
2022-08-23T16:16:56.034Z,70172.63
2022-08-23T16:19:22.810Z,69933.88
2022-08-23T16:21:53.475Z,70012.78
2022-08-23T16:24:20.609Z,69886.13
2022-08-23T16:26:51.434Z,69757.44
2022-08-23T16:29:20.654Z,69906.91
2022-08-23T16:31:47.506Z,69747.06
2022-08-23T16:34:16.569Z,69485.50
2022-08-23T16:36:43.828Z,69296.59
2022-08-23T16:39:11.717Z,69124.34
2022-08-23T16:41:38.446Z,69178.28
2022-08-23T16:44:05.081Z,68734.13
2022-08-23T16:46:31.475Z,68756.97
2022-08-23T16:48:58.122Z,68833.75
2022-08-23T16:51:24.557Z,68752.81
2022-08-23T16:54:01.717Z,68397.94
2022-08-23T16:56:30.376Z,68302.50
2022-08-23T16:58:56.821Z,68099.13
2022-08-23T17:01:23.238Z,68132.31
2022-08-23T17:03:49.591Z,67974.63
2022-08-23T17:06:16.024Z,67856.34
2022-08-23T17:08:42.370Z,67783.72
2022-08-23T17:11:10.090Z,67615.66
2022-08-23T17:13:36.384Z,67540.97
2022-08-23T17:16:02.814Z,67547.19
2022-08-23T17:18:29.207Z,67472.50
2022-08-23T17:20:55.592Z,67526.44
2022-08-23T17:23:24.827Z,67453.84
2022-08-23T17:25:51.248Z,67350.09
2022-08-23T17:28:17.627Z,67223.56
2022-08-23T17:30:43.982Z,67206.97
2022-08-23T17:33:10.317Z,67150.94
2022-08-23T17:35:36.986Z,67092.84
2022-08-23T17:38:04.210Z,67119.81
2022-08-23T17:40:36.803Z,66991.22
2022-08-23T17:43:08.496Z,66928.97
2022-08-23T17:45:45.029Z,66949.72
2022-08-23T17:48:11.403Z,66800.34
2022-08-23T17:50:44.104Z,66804.50
2022-08-23T17:53:11.244Z,66816.94
2022-08-23T17:55:37.720Z,66707.00
2022-08-23T17:58:04.996Z,66547.28
2022-08-23T18:00:32.497Z,66352.31
2022-08-23T18:02:58.953Z,66093.06
2022-08-23T18:05:25.845Z,66039.13
2022-08-23T18:07:52.215Z,66041.22
2022-08-23T18:10:18.699Z,65842.13
2022-08-23T18:12:48.030Z,65738.41
2022-08-23T18:15:14.619Z,65589.09
2022-08-23T18:17:41.010Z,65659.63
2022-08-23T18:20:09.515Z,65535.19
2022-08-23T18:22:38.847Z,65294.66
2022-08-23T18:25:07.076Z,65186.81
2022-08-23T18:27:52.148Z,64940.09
2022-08-23T18:30:18.476Z,64823.97
2022-08-23T18:32:44.817Z,64672.63
2022-08-23T18:35:11.242Z,64589.69
2022-08-23T18:37:42.965Z,64454.94
2022-08-23T18:40:10.350Z,64376.16
2022-08-23T18:42:37.138Z,64245.56
2022-08-23T18:45:05.021Z,64143.97
2022-08-23T18:47:31.384Z,64044.47
2022-08-23T18:49:57.765Z,63974.00
2022-08-23T18:52:24.160Z,63849.63
2022-08-23T18:54:50.554Z,63781.22
2022-08-23T18:57:17.682Z,63760.50
2022-08-23T18:59:47.003Z,63592.59
2022-08-23T19:02:13.580Z,63522.13
2022-08-23T19:04:40.019Z,63441.28
2022-08-23T19:07:09.754Z,63314.88
2022-08-23T19:09:36.876Z,63385.34
2022-08-23T19:12:04.090Z,63408.13
2022-08-23T19:14:33.235Z,63348.03
2022-08-23T19:17:01.846Z,63343.88
2022-08-23T19:19:28.317Z,63329.38
2022-08-23T19:21:58.439Z,63229.91
2022-08-23T19:24:24.821Z,63155.28
2022-08-23T19:26:51.370Z,63035.09
2022-08-23T19:29:19.763Z,62945.97
2022-08-23T19:31:47.954Z,62995.72
2022-08-23T19:34:15.479Z,62989.50
2022-08-23T19:36:56.771Z,62927.31
2022-08-23T19:39:27.300Z,62836.13
2022-08-23T19:41:53.646Z,62832.00
2022-08-23T19:44:21.115Z,62771.91
2022-08-23T19:46:52.365Z,62724.22
2022-08-23T19:49:18.716Z,62759.47
2022-08-23T19:51:45.078Z,62666.22
2022-08-23T19:54:12.773Z,62612.34
2022-08-23T19:56:54.368Z,62548.09
2022-08-23T19:59:23.670Z,62508.72
2022-08-23T20:01:50.833Z,62508.72
2022-08-23T20:04:17.701Z,62392.69
2022-08-23T20:06:44.261Z,62355.38
2022-08-23T20:09:11.194Z,62336.75
2022-08-23T20:11:38.062Z,62305.66
2022-08-23T20:14:05.412Z,62297.38
2022-08-23T20:16:32.793Z,62253.84
2022-08-23T20:18:59.344Z,62293.22
2022-08-23T20:21:25.995Z,62226.94
2022-08-23T20:24:01.639Z,62202.06
2022-08-23T20:26:33.824Z,62168.91
2022-08-23T20:29:03.377Z,62148.19
2022-08-23T20:31:31.895Z,62100.53
2022-08-23T20:33:58.458Z,62108.81
2022-08-23T20:36:28.110Z,62125.41
2022-08-23T20:38:58.387Z,62065.31
2022-08-23T20:41:25.688Z,62119.19
2022-08-23T20:43:54.034Z,62098.47
2022-08-23T20:46:20.484Z,62028.03
2022-08-23T20:48:46.864Z,62044.59
2022-08-23T20:51:13.417Z,62063.25
2022-08-23T20:53:39.964Z,61988.66
2022-08-23T20:56:06.465Z,61941.00
2022-08-23T20:58:32.865Z,61963.78
2022-08-23T21:00:59.243Z,61893.34
2022-08-23T21:03:25.799Z,61874.69
2022-08-23T21:06:01.044Z,61818.75
2022-08-23T21:08:27.658Z,61802.19
2022-08-23T21:10:54.162Z,61762.81
2022-08-23T21:13:20.542Z,61841.56
2022-08-23T21:15:47.178Z,61752.47
2022-08-23T21:18:13.533Z,61754.53
2022-08-23T21:20:39.869Z,61798.03
2022-08-23T21:23:06.237Z,61804.25
2022-08-23T21:25:32.574Z,61750.41
2022-08-23T21:28:03.951Z,61690.31
2022-08-23T21:30:30.715Z,61698.59
2022-08-23T21:32:57.291Z,61665.44
2022-08-23T21:35:23.652Z,61653.03
2022-08-23T21:37:50.336Z,61632.31
2022-08-23T21:40:16.927Z,61584.66
2022-08-23T21:42:43.320Z,61568.09
2022-08-23T21:45:09.701Z,61630.22
2022-08-23T21:47:37.053Z,61621.94
2022-08-23T21:50:04.356Z,61578.44
2022-08-23T21:52:30.762Z,61570.16
2022-08-23T21:54:57.151Z,61518.38
2022-08-23T21:57:23.562Z,61582.59
2022-08-23T21:59:50.008Z,61545.28
2022-08-23T22:02:16.439Z,61539.09
2022-08-23T22:04:45.222Z,61545.28
2022-08-23T22:07:11.634Z,61551.50
2022-08-23T22:09:38.005Z,61516.28
2022-08-23T22:12:04.528Z,61508.00
2022-08-23T22:14:32.221Z,61495.56
2022-08-23T22:16:59.012Z,61464.50
2022-08-23T22:19:25.412Z,61462.44
2022-08-23T22:21:52.908Z,61454.16
2022-08-23T22:24:23.371Z,61501.78
2022-08-23T22:26:52.569Z,61460.38
2022-08-23T22:29:18.929Z,61470.72
2022-08-23T22:31:45.916Z,61460.38
2022-08-23T22:34:12.684Z,61452.06
2022-08-23T22:36:39.423Z,61402.34
2022-08-23T22:39:06.029Z,61389.94
2022-08-23T22:41:32.594Z,61398.22
2022-08-23T22:43:59.458Z,61406.50
2022-08-23T22:46:26.722Z,61381.63
2022-08-23T22:48:53.735Z,61375.44
2022-08-23T22:51:21.677Z,61336.06
2022-08-23T22:53:49.359Z,61331.94
2022-08-23T22:56:17.201Z,61311.22
2022-08-23T22:58:43.840Z,61305.00
2022-08-23T23:01:13.331Z,61294.63
2022-08-23T23:03:41.326Z,61257.34
2022-08-23T23:06:08.346Z,61286.34
2022-08-23T23:08:34.678Z,61296.72
2022-08-23T23:11:01.664Z,61323.63
2022-08-23T23:13:29.389Z,61338.13
2022-08-23T23:15:56.382Z,61365.06
2022-08-23T23:18:23.159Z,61472.78
2022-08-23T23:20:49.664Z,61485.22
2022-08-23T23:23:18.368Z,61462.44
2022-08-23T23:25:46.045Z,61497.66
2022-08-23T23:28:12.829Z,61481.06
2022-08-23T23:30:39.346Z,61458.28
2022-08-23T23:33:05.984Z,61389.94
2022-08-23T23:35:32.680Z,61406.50
2022-08-23T23:37:59.029Z,61418.94
2022-08-23T23:40:25.813Z,61379.56
2022-08-23T23:42:52.484Z,61360.94
2022-08-23T23:45:18.850Z,61321.56
2022-08-23T23:47:45.214Z,61344.34
2022-08-23T23:50:11.897Z,61311.22
2022-08-23T23:52:38.297Z,61311.22
2022-08-23T23:55:05.810Z,61327.78
2022-08-23T23:57:32.689Z,61317.44
2022-08-23T23:59:59.582Z,61255.28
